Time;durP1;ratioP1;P1;durP2;ratioP2;P2;SDS_P1;SDS_P2;PMS_P1;PMS_P2;Temp;Humidity;BMP_temperature;BMP_pressure;BME280_temperature;BME280_humidity;BME280_pressure;Samples;Min_cycle;Max_cycle;Signal;HPM_P1;HPM_P2
2021/10/29 00:00:25;;;;;;;5.70;3.83;;;2.70;98.90;;;;;;2081898;28;20185;-66
2021/10/29 00:01:28;;;;;;;3.57;3.17;;;2.70;98.80;;;;;;2081526;28;20231;-66
2021/10/29 00:02:29;;;;;;;4.93;3.53;;;2.70;98.70;;;;;;2081967;28;20435;-66
2021/10/29 00:03:30;;;;;;;4.97;3.17;;;2.70;98.70;;;;;;2081927;28;20186;-66
2021/10/29 00:04:30;;;;;;;4.10;3.23;;;2.70;98.90;;;;;;2081904;28;20193;-66
2021/10/29 00:05:33;;;;;;;3.37;2.70;;;2.60;99.00;;;;;;2081951;28;20200;-65
2021/10/29 00:06:34;;;;;;;3.80;2.83;;;2.60;99.10;;;;;;2081743;28;20198;-65
2021/10/29 00:07:34;;;;;;;4.03;2.80;;;2.70;99.20;;;;;;2081854;28;20216;-66
2021/10/29 00:08:35;;;;;;;3.33;2.80;;;2.70;99.20;;;;;;2081657;28;20187;-66
2021/10/29 00:09:36;;;;;;;3.63;2.77;;;2.70;99.30;;;;;;2081897;28;20177;-66
2021/10/29 00:10:37;;;;;;;4.37;3.27;;;2.70;99.20;;;;;;2081947;28;20263;-66
2021/10/29 00:11:37;;;;;;;4.53;2.90;;;2.70;99.20;;;;;;2081761;28;20195;-66
2021/10/29 00:12:38;;;;;;;3.47;2.60;;;2.70;99.20;;;;;;2081748;28;20177;-65
2021/10/29 00:13:39;;;;;;;4.77;2.90;;;2.70;99.10;;;;;;2081810;28;20235;-66
2021/10/29 00:14:41;;;;;;;4.73;2.63;;;2.70;99.10;;;;;;2081728;28;20621;-66
2021/10/29 00:15:42;;;;;;;3.95;2.65;;;2.70;99.30;;;;;;2081876;28;20185;-66
2021/10/29 00:16:42;;;;;;;4.67;2.53;;;2.70;99.80;;;;;;2081702;28;20212;-66
2021/10/29 00:17:43;;;;;;;4.40;2.80;;;2.70;99.30;;;;;;2081802;28;20557;-66
2021/10/29 00:18:44;;;;;;;4.33;2.40;;;2.70;99.30;;;;;;2081734;28;20205;-66
2021/10/29 00:19:45;;;;;;;3.93;2.80;;;2.60;99.40;;;;;;2081584;28;20533;-66
2021/10/29 00:20:46;;;;;;;3.25;2.55;;;2.60;99.40;;;;;;2081664;28;20665;-66
2021/10/29 00:21:47;;;;;;;3.45;2.45;;;2.70;99.40;;;;;;2081464;28;20204;-66
2021/10/29 00:22:48;;;;;;;3.40;2.70;;;2.60;99.40;;;;;;2082009;28;20177;-66
2021/10/29 00:23:49;;;;;;;3.65;2.60;;;2.70;99.40;;;;;;2081742;28;20627;-66
2021/10/29 00:24:49;;;;;;;4.03;2.93;;;2.70;99.40;;;;;;2081594;28;20185;-66
2021/10/29 00:25:50;;;;;;;3.33;2.57;;;2.60;99.30;;;;;;2081605;28;20205;-66
2021/10/29 00:26:51;;;;;;;4.13;2.77;;;2.60;99.40;;;;;;2081647;28;20196;-66
2021/10/29 00:27:52;;;;;;;4.80;2.60;;;2.60;99.40;;;;;;2081840;28;20177;-66
2021/10/29 00:28:53;;;;;;;4.43;3.00;;;2.60;99.40;;;;;;2081805;28;20567;-66
2021/10/29 00:29:55;;;;;;;3.80;2.80;;;2.60;99.30;;;;;;2081038;28;20178;-66
2021/10/29 00:30:55;;;;;;;3.97;2.45;;;2.60;99.20;;;;;;2081061;28;20185;-66
2021/10/29 00:31:56;;;;;;;4.17;2.50;;;2.50;99.10;;;;;;2081426;28;20821;-65
2021/10/29 00:32:57;;;;;;;3.87;2.70;;;2.50;99.00;;;;;;2081718;28;20213;-66
2021/10/29 00:33:57;;;;;;;3.53;2.57;;;2.50;98.90;;;;;;2081688;28;20268;-66
2021/10/29 00:34:58;;;;;;;4.57;2.70;;;2.50;98.90;;;;;;2081611;28;20264;-66
2021/10/29 00:35:59;;;;;;;4.37;2.57;;;2.50;98.90;;;;;;2081501;28;20558;-66
2021/10/29 00:36:59;;;;;;;4.23;2.70;;;2.50;99.00;;;;;;2081634;28;20276;-65
2021/10/29 00:38:00;;;;;;;4.30;2.73;;;2.50;99.00;;;;;;2081537;28;20644;-66
2021/10/29 00:39:01;;;;;;;4.23;3.20;;;2.50;99.10;;;;;;2081728;28;20212;-66
2021/10/29 00:40:01;;;;;;;4.77;3.67;;;2.50;99.20;;;;;;2081585;28;20188;-66
2021/10/29 00:41:02;;;;;;;7.40;4.20;;;2.50;99.40;;;;;;2081372;28;20264;-66
2021/10/29 00:42:03;;;;;;;6.67;3.87;;;2.50;99.50;;;;;;2081459;28;20207;-66
2021/10/29 00:43:04;;;;;;;5.32;3.58;;;2.60;99.60;;;;;;2081610;28;20646;-66
2021/10/29 00:44:05;;;;;;;5.57;3.10;;;2.60;99.60;;;;;;2081642;28;20311;-66
2021/10/29 00:45:07;;;;;;;5.28;3.70;;;2.60;99.70;;;;;;2081143;28;20861;-66
2021/10/29 00:46:08;;;;;;;7.72;4.75;;;2.60;99.70;;;;;;2080891;28;20281;-66
2021/10/29 00:47:09;;;;;;;8.47;4.77;;;2.60;99.70;;;;;;2081418;28;20197;-66
2021/10/29 00:48:12;;;;;;;9.35;5.15;;;2.70;99.90;;;;;;2081493;28;20185;-66
2021/10/29 00:49:13;;;;;;;7.25;5.20;;;2.70;99.90;;;;;;2081607;28;20680;-68
2021/10/29 00:50:14;;;;;;;7.10;4.50;;;2.80;99.90;;;;;;2081522;28;20199;-66
2021/10/29 00:51:17;;;;;;;8.23;4.77;;;2.80;99.90;;;;;;2081434;28;20181;-66
2021/10/29 00:52:18;;;;;;;8.30;4.57;;;2.80;99.90;;;;;;2081343;28;20201;-66
2021/10/29 00:53:20;;;;;;;6.13;4.17;;;2.90;99.90;;;;;;2080901;28;20177;-66
2021/10/29 00:54:21;;;;;;;5.47;3.78;;;2.90;99.90;;;;;;2080881;28;20183;-66
2021/10/29 00:55:23;;;;;;;6.70;3.70;;;2.90;99.90;;;;;;2072750;28;20649;-66
2021/10/29 00:56:23;;;;;;;5.97;4.28;;;2.90;99.90;;;;;;2079744;28;20416;-65
2021/10/29 00:57:25;;;;;;;7.40;3.90;;;2.90;99.90;;;;;;2080346;28;20264;-66
2021/10/29 00:58:26;;;;;;;5.78;3.53;;;2.90;99.90;;;;;;2080818;28;20220;-66
2021/10/29 00:59:27;;;;;;;4.93;3.70;;;2.90;99.90;;;;;;2081651;28;20181;-66
2021/10/29 01:00:28;;;;;;;5.03;3.70;;;2.90;99.90;;;;;;2081469;28;20177;-66
2021/10/29 01:01:29;;;;;;;5.00;3.80;;;3.00;99.90;;;;;;2081394;28;20180;-66
2021/10/29 01:02:29;;;;;;;4.40;3.40;;;2.90;99.90;;;;;;2081395;28;20204;-66
2021/10/29 01:03:31;;;;;;;6.00;3.53;;;2.90;99.90;;;;;;2081496;28;20208;-66
2021/10/29 01:04:32;;;;;;;3.67;3.13;;;2.90;99.90;;;;;;2081476;28;20653;-66
2021/10/29 01:05:32;;;;;;;5.63;3.47;;;2.90;99.90;;;;;;2081597;28;20206;-66
2021/10/29 01:06:33;;;;;;;4.13;3.30;;;2.90;99.80;;;;;;2080753;28;20176;-66
2021/10/29 01:07:35;;;;;;;4.77;2.80;;;2.90;99.80;;;;;;2081454;28;20296;-66
2021/10/29 01:08:36;;;;;;;4.03;3.03;;;2.80;99.80;;;;;;2081373;28;20185;-66
2021/10/29 01:09:37;;;;;;;5.30;3.13;;;2.90;99.90;;;;;;2081633;28;20196;-66
2021/10/29 01:10:38;;;;;;;3.87;2.97;;;2.80;99.90;;;;;;2081669;28;20641;-67
2021/10/29 01:11:40;;;;;;;3.30;2.63;;;2.90;99.90;;;;;;2081154;28;20181;-66
2021/10/29 01:12:40;;;;;;;3.30;2.40;;;2.90;99.90;;;;;;2081560;28;20672;-66
2021/10/29 01:13:49;;;;;;;4.53;2.83;;;2.80;99.90;;;;;;2081270;28;20181;-66
2021/10/29 01:14:58;;;;;;;4.78;2.83;;;2.80;99.90;;;;;;2081546;28;20165;-66
2021/10/29 01:15:59;;;;;;;5.25;2.80;;;2.90;99.90;;;;;;2081342;28;20173;-66
2021/10/29 01:17:00;;;;;;;2.73;2.43;;;2.80;99.90;;;;;;2081428;28;20201;-66
2021/10/29 01:18:01;;;;;;;3.05;2.45;;;2.80;99.90;;;;;;2081258;28;20528;-66
2021/10/29 01:19:02;;;;;;;3.97;2.60;;;2.80;99.90;;;;;;2081298;28;20239;-66
2021/10/29 01:20:04;;;;;;;4.88;2.47;;;2.80;99.90;;;;;;2081431;28;20177;-66
2021/10/29 01:21:05;;;;;;;3.83;2.50;;;2.80;99.90;;;;;;2081265;28;20181;-66
2021/10/29 01:22:05;;;;;;;3.60;2.50;;;2.70;99.80;;;;;;2081225;28;20187;-66
2021/10/29 01:23:06;;;;;;;3.97;2.30;;;2.70;99.70;;;;;;2081388;28;20185;-66
2021/10/29 01:24:08;;;;;;;2.50;2.30;;;2.70;99.60;;;;;;2081478;28;20203;-66
2021/10/29 01:25:10;;;;;;;2.42;2.10;;;2.70;99.90;;;;;;2081254;28;20182;-66
2021/10/29 01:26:14;;;;;;;3.42;2.47;;;2.70;99.50;;;;;;2081296;28;20657;-66
2021/10/29 01:27:16;;;;;;;2.83;2.35;;;2.70;99.60;;;;;;2081410;28;20746;-65
2021/10/29 01:28:17;;;;;;;2.70;2.30;;;2.70;99.50;;;;;;2081170;28;20184;-66
2021/10/29 01:29:18;;;;;;;3.50;2.40;;;2.70;99.50;;;;;;2081519;28;20204;-69
2021/10/29 01:30:19;;;;;;;3.33;2.37;;;2.60;99.50;;;;;;2081305;28;20181;-66
2021/10/29 01:31:19;;;;;;;3.50;2.60;;;2.60;99.60;;;;;;2081231;28;20276;-66
2021/10/29 01:32:22;;;;;;;2.97;2.17;;;2.70;99.70;;;;;;2081420;28;20644;-65
2021/10/29 01:33:22;;;;;;;4.97;2.80;;;2.60;99.70;;;;;;2081461;28;20718;-66
2021/10/29 01:34:24;;;;;;;3.70;2.17;;;2.70;99.70;;;;;;2081428;28;20182;-65
2021/10/29 01:35:25;;;;;;;2.92;2.28;;;2.60;99.60;;;;;;2081463;28;20181;-66
2021/10/29 01:36:25;;;;;;;2.85;2.35;;;2.60;99.50;;;;;;2081279;28;20664;-66
2021/10/29 01:37:26;;;;;;;4.13;2.07;;;2.60;99.50;;;;;;2081448;28;20257;-68
2021/10/29 01:38:35;;;;;;;3.87;2.50;;;2.60;99.60;;;;;;2081128;28;20295;-66
2021/10/29 01:39:37;;;;;;;4.15;2.67;;;2.60;99.70;;;;;;2081375;28;20551;-66
2021/10/29 01:40:38;;;;;;;6.45;2.65;;;2.70;99.90;;;;;;2081387;28;20264;-66
2021/10/29 01:41:39;;;;;;;4.33;3.07;;;2.60;99.90;;;;;;2081352;28;20173;-65
2021/10/29 01:42:40;;;;;;;6.00;3.08;;;2.70;99.90;;;;;;2081276;28;20203;-65
2021/10/29 01:43:47;;;;;;;5.10;3.17;;;2.70;99.90;;;;;;2081364;28;20217;-65
2021/10/29 01:44:48;;;;;;;5.55;3.17;;;2.70;99.90;;;;;;2081436;28;20186;-65
2021/10/29 01:45:49;;;;;;;4.27;2.70;;;2.70;99.90;;;;;;2081556;28;20680;-65
2021/10/29 01:46:49;;;;;;;3.40;2.70;;;2.70;99.90;;;;;;2081025;28;20205;-65
2021/10/29 01:47:50;;;;;;;4.13;2.40;;;2.70;99.90;;;;;;2081508;28;20208;-65
2021/10/29 01:48:53;;;;;;;6.00;2.40;;;2.70;99.90;;;;;;2081435;28;20432;-65
2021/10/29 01:49:54;;;;;;;2.75;2.17;;;2.70;99.80;;;;;;2080846;28;20181;-65
2021/10/29 01:50:55;;;;;;;3.13;2.20;;;2.60;99.70;;;;;;2080629;28;20542;-65
2021/10/29 01:51:56;;;;;;;4.43;2.33;;;2.60;99.70;;;;;;2081066;28;20197;-65
2021/10/29 01:52:57;;;;;;;2.40;2.10;;;2.60;99.70;;;;;;2081456;28;20191;-65
2021/10/29 01:53:58;;;;;;;4.85;2.25;;;2.60;99.70;;;;;;2081420;28;20209;-64
2021/10/29 01:54:59;;;;;;;3.88;2.70;;;2.60;99.80;;;;;;2081155;28;20679;-65
2021/10/29 01:56:00;;;;;;;3.20;2.13;;;2.60;99.80;;;;;;2081215;28;20276;-65
2021/10/29 01:57:01;;;;;;;2.67;1.85;;;2.60;99.90;;;;;;2081267;28;20207;-65
2021/10/29 01:58:02;;;;;;;3.37;2.27;;;2.50;99.80;;;;;;2081358;28;20687;-65
2021/10/29 01:59:02;;;;;;;3.20;2.57;;;2.50;99.80;;;;;;2081149;28;20463;-65
2021/10/29 02:00:06;;;;;;;3.20;2.23;;;2.50;99.90;;;;;;2081464;28;20181;-65
2021/10/29 02:01:07;;;;;;;3.13;2.15;;;2.50;99.90;;;;;;2080988;28;20185;-66
2021/10/29 02:02:07;;;;;;;2.47;2.23;;;2.50;99.90;;;;;;2081380;28;20652;-65
2021/10/29 02:03:08;;;;;;;3.00;2.17;;;2.40;99.90;;;;;;2081334;28;20168;-65
2021/10/29 02:04:09;;;;;;;5.27;2.60;;;2.50;99.90;;;;;;2081399;28;20567;-65
2021/10/29 02:05:10;;;;;;;7.40;2.60;;;2.40;99.90;;;;;;2081275;28;20177;-65
2021/10/29 02:06:11;;;;;;;3.00;2.20;;;2.50;99.90;;;;;;2081231;28;20173;-65
2021/10/29 02:07:12;;;;;;;4.07;2.20;;;2.50;99.90;;;;;;2081195;28;20216;-65
2021/10/29 02:08:12;;;;;;;2.90;2.10;;;2.50;99.90;;;;;;2081224;28;20615;-65
2021/10/29 02:09:14;;;;;;;3.17;2.07;;;2.50;99.90;;;;;;2081169;28;20182;-65
2021/10/29 02:10:14;;;;;;;4.75;2.58;;;2.50;99.90;;;;;;2081403;28;20271;-66
2021/10/29 02:11:15;;;;;;;3.57;2.40;;;2.50;99.90;;;;;;2080953;28;20180;-65
2021/10/29 02:12:16;;;;;;;3.47;2.42;;;2.50;99.90;;;;;;2081408;28;20248;-65
2021/10/29 02:13:20;;;;;;;3.63;2.33;;;2.50;99.90;;;;;;2081100;28;20184;-65
2021/10/29 02:14:21;;;;;;;2.80;2.38;;;2.60;99.90;;;;;;2081303;28;20188;-65
2021/10/29 02:15:22;;;;;;;3.40;2.22;;;2.60;99.90;;;;;;2081381;28;20232;-65
2021/10/29 02:16:22;;;;;;;3.30;2.20;;;2.60;99.90;;;;;;2081099;28;20281;-65
2021/10/29 02:17:24;;;;;;;2.57;2.30;;;2.60;99.90;;;;;;2081243;28;20178;-65
2021/10/29 02:18:25;;;;;;;3.05;2.42;;;2.50;99.90;;;;;;2082514;28;20260;-65
2021/10/29 02:19:26;;;;;;;3.57;2.07;;;2.50;99.90;;;;;;2082733;28;20687;-65
2021/10/29 02:20:26;;;;;;;3.30;2.27;;;2.50;99.90;;;;;;2082774;28;20200;-64
2021/10/29 02:21:31;;;;;;;3.13;2.53;;;2.50;99.90;;;;;;2082526;28;20177;-65
2021/10/29 02:22:32;;;;;;;3.55;2.20;;;2.50;99.90;;;;;;2082909;28;20180;-67
2021/10/29 02:23:33;;;;;;;3.05;2.20;;;2.50;99.90;;;;;;2082844;28;20196;-65
2021/10/29 02:24:34;;;;;;;4.30;2.00;;;2.50;99.90;;;;;;2082616;28;20263;-65
2021/10/29 02:25:35;;;;;;;2.95;2.30;;;2.50;99.90;;;;;;2082718;28;20235;-66
2021/10/29 02:26:36;;;;;;;5.50;2.43;;;2.50;99.90;;;;;;2082549;28;20185;-65
2021/10/29 02:27:37;;;;;;;2.63;2.00;;;2.50;99.90;;;;;;2082865;28;20489;-65
2021/10/29 02:28:38;;;;;;;3.00;2.20;;;2.50;99.90;;;;;;2082586;28;20181;-65
2021/10/29 02:29:39;;;;;;;5.33;2.03;;;2.50;99.90;;;;;;2082607;28;20719;-65
2021/10/29 02:30:40;;;;;;;4.17;2.60;;;2.50;99.90;;;;;;2082590;28;20915;-65
2021/10/29 02:31:40;;;;;;;4.88;2.28;;;2.50;99.90;;;;;;2082384;28;20260;-65
2021/10/29 02:32:41;;;;;;;3.23;2.20;;;2.50;99.90;;;;;;2082458;28;20200;-65
2021/10/29 02:33:42;;;;;;;6.55;2.10;;;2.50;99.90;;;;;;2082597;28;20210;-65
2021/10/29 02:34:43;;;;;;;3.27;2.27;;;2.50;99.90;;;;;;2082590;28;20184;-65
2021/10/29 02:35:45;;;;;;;3.60;2.72;;;2.50;99.90;;;;;;2082530;28;20648;-65
2021/10/29 02:36:46;;;;;;;4.07;2.13;;;2.50;99.90;;;;;;2082475;28;20226;-65
2021/10/29 02:37:46;;;;;;;4.33;2.27;;;2.50;99.90;;;;;;2082567;28;20182;-65
2021/10/29 02:38:47;;;;;;;2.63;2.20;;;2.50;99.90;;;;;;2082553;28;20201;-65
2021/10/29 02:39:48;;;;;;;3.13;1.93;;;2.50;99.90;;;;;;2082660;28;20654;-65
2021/10/29 02:40:49;;;;;;;3.77;2.07;;;2.50;99.90;;;;;;2082362;28;20174;-65
2021/10/29 02:41:50;;;;;;;2.72;2.22;;;2.50;99.90;;;;;;2082399;28;20668;-65
2021/10/29 02:42:51;;;;;;;3.23;2.43;;;2.50;99.90;;;;;;2082431;28;20211;-65
2021/10/29 02:43:52;;;;;;;4.23;2.27;;;2.50;99.90;;;;;;2082636;28;20427;-65
2021/10/29 02:44:53;;;;;;;4.65;2.60;;;2.60;99.90;;;;;;2082568;28;20181;-65
2021/10/29 02:45:53;;;;;;;3.13;2.33;;;2.60;99.90;;;;;;2082365;28;20224;-65
2021/10/29 02:46:54;;;;;;;3.27;2.20;;;2.50;99.90;;;;;;2082435;28;20455;-65
2021/10/29 02:47:55;;;;;;;3.33;2.42;;;2.60;99.90;;;;;;2082679;28;20192;-65
2021/10/29 02:48:56;;;;;;;3.70;2.22;;;2.50;99.90;;;;;;2082321;28;20668;-65
2021/10/29 02:49:57;;;;;;;2.95;2.28;;;2.60;99.90;;;;;;2082541;28;20545;-65
2021/10/29 02:50:58;;;;;;;3.83;2.33;;;2.60;99.90;;;;;;2082482;28;20185;-65
2021/10/29 02:51:58;;;;;;;4.87;2.07;;;2.50;99.90;;;;;;2080189;28;20226;-65
2021/10/29 02:53:02;;;;;;;3.20;2.33;;;2.50;99.90;;;;;;2082420;28;20276;-65
2021/10/29 02:54:02;;;;;;;5.75;2.30;;;2.50;99.90;;;;;;2082230;28;20181;-65
2021/10/29 02:55:04;;;;;;;3.07;2.30;;;2.50;99.90;;;;;;2082528;28;20181;-65
2021/10/29 02:56:06;;;;;;;4.15;2.30;;;2.50;99.90;;;;;;2082590;28;20185;-65
2021/10/29 02:57:07;;;;;;;2.85;2.13;;;2.50;99.90;;;;;;2082377;28;20212;-65
2021/10/29 02:58:08;;;;;;;4.37;2.07;;;2.50;99.90;;;;;;2082255;28;20250;-65
2021/10/29 02:59:08;;;;;;;5.40;2.47;;;2.50;99.90;;;;;;2082513;28;20177;-65
2021/10/29 03:00:15;;;;;;;2.70;2.00;;;2.50;99.90;;;;;;2082326;28;20668;-65
2021/10/29 03:01:16;;;;;;;3.10;2.13;;;2.50;99.80;;;;;;2081987;28;20166;-65
2021/10/29 03:02:17;;;;;;;2.57;2.10;;;2.40;99.60;;;;;;2082159;28;20197;-65
2021/10/29 03:03:17;;;;;;;3.63;1.80;;;2.40;99.70;;;;;;2082443;28;20181;-66
2021/10/29 03:04:18;;;;;;;2.47;1.80;;;2.40;99.70;;;;;;2081954;28;20173;-65
2021/10/29 03:05:19;;;;;;;3.40;1.90;;;2.30;99.70;;;;;;2074282;28;20190;-65
2021/10/29 03:06:20;;;;;;;2.80;1.70;;;2.30;99.80;;;;;;2074016;28;20182;-65
2021/10/29 03:07:20;;;;;;;3.67;2.07;;;2.20;99.80;;;;;;2074059;28;20201;-65
2021/10/29 03:08:21;;;;;;;2.53;1.90;;;2.20;99.80;;;;;;2074131;28;20188;-65
2021/10/29 03:09:22;;;;;;;3.47;2.05;;;2.20;99.90;;;;;;2074401;28;20221;-65
2021/10/29 03:10:23;;;;;;;3.00;2.00;;;2.20;99.90;;;;;;2074139;28;20605;-65
2021/10/29 03:11:24;;;;;;;2.27;1.90;;;2.20;99.90;;;;;;2073813;28;20189;-65
2021/10/29 03:12:25;;;;;;;6.05;2.20;;;2.20;99.90;;;;;;2074104;28;20182;-65
2021/10/29 03:13:26;;;;;;;3.80;2.03;;;2.20;99.90;;;;;;2074200;28;20205;-66
2021/10/29 03:14:27;;;;;;;4.03;2.10;;;2.10;99.90;;;;;;2074144;28;20179;-65
2021/10/29 03:15:27;;;;;;;2.77;2.23;;;2.20;99.90;;;;;;2074033;28;20509;-65
2021/10/29 03:16:28;;;;;;;2.63;1.80;;;2.20;99.90;;;;;;2074053;28;20188;-65
2021/10/29 03:17:29;;;;;;;2.50;2.03;;;2.20;99.90;;;;;;2074070;28;20260;-65
2021/10/29 03:18:30;;;;;;;2.30;2.10;;;2.20;99.90;;;;;;2081383;28;20220;-65
2021/10/29 03:19:31;;;;;;;5.07;2.10;;;2.30;99.90;;;;;;2081686;28;20265;-65
2021/10/29 03:20:32;;;;;;;3.40;2.40;;;2.30;99.90;;;;;;2073847;28;20585;-65
2021/10/29 03:21:33;;;;;;;3.87;2.20;;;2.30;99.90;;;;;;2073673;28;20552;-65
2021/10/29 03:22:34;;;;;;;2.72;2.10;;;2.30;99.90;;;;;;2073891;28;20605;-65
2021/10/29 03:23:35;;;;;;;2.40;1.90;;;2.30;99.90;;;;;;2073899;28;20187;-65
2021/10/29 03:24:36;;;;;;;2.63;1.90;;;2.30;99.90;;;;;;2073797;28;20209;-65
2021/10/29 03:25:36;;;;;;;3.87;2.37;;;2.30;99.90;;;;;;2073970;28;20193;-65
2021/10/29 03:26:37;;;;;;;3.37;2.27;;;2.30;99.90;;;;;;2073815;28;20523;-65
2021/10/29 03:27:38;;;;;;;3.00;1.97;;;2.30;99.90;;;;;;2073759;28;20443;-65
2021/10/29 03:28:39;;;;;;;3.83;2.17;;;2.30;99.90;;;;;;2073711;28;20197;-65
2021/10/29 03:29:40;;;;;;;2.57;2.33;;;2.30;99.90;;;;;;2073224;28;20417;-65
2021/10/29 03:30:41;;;;;;;4.15;2.67;;;2.30;99.90;;;;;;2073658;28;20672;-65
2021/10/29 03:31:42;;;;;;;4.07;2.35;;;2.30;99.90;;;;;;2073497;28;20186;-65
2021/10/29 03:32:44;;;;;;;2.57;2.10;;;2.30;99.90;;;;;;2073858;28;20184;-65
2021/10/29 03:33:45;;;;;;;2.53;2.13;;;2.30;99.90;;;;;;2073770;28;20616;-65
2021/10/29 03:34:46;;;;;;;3.50;2.60;;;2.30;99.90;;;;;;2073873;28;20204;-65
2021/10/29 03:35:46;;;;;;;2.50;2.00;;;2.30;99.90;;;;;;2073664;28;20452;-65
2021/10/29 03:36:47;;;;;;;3.67;2.30;;;2.30;99.90;;;;;;2073763;28;20225;-65
2021/10/29 03:38:09;;;;;;;2.80;2.17;;;2.30;99.90;;;;;;2073783;28;20193;-65
2021/10/29 03:39:14;;;;;;;5.18;2.30;;;2.30;99.90;;;;;;2073929;28;20186;-64
2021/10/29 03:41:22;;;;;;;3.30;2.60;;;2.40;99.90;;;;;;2073488;28;20196;-65
2021/10/29 03:42:30;;;;;;;7.35;2.80;;;2.50;99.90;;;;;;2073892;28;20169;-65
2021/10/29 03:43:38;;;;;;;4.28;2.80;;;2.50;99.90;;;;;;2073722;28;20546;-65
2021/10/29 03:45:52;;;;;;;3.35;2.50;;;2.50;99.90;;;;;;2073856;28;20202;-65
2021/10/29 03:46:56;;;;;;;3.28;2.33;;;2.50;99.90;;;;;;2073778;28;20189;-65
2021/10/29 03:48:00;;;;;;;3.30;2.38;;;2.50;99.90;;;;;;2073775;28;20178;-65
2021/10/29 03:50:15;;;;;;;3.23;2.47;;;2.50;99.90;;;;;;2073674;28;20206;-65
2021/10/29 03:51:22;;;;;;;5.03;2.92;;;2.50;99.90;;;;;;2073580;28;20239;-65
2021/10/29 03:52:30;;;;;;;3.85;2.67;;;2.50;99.90;;;;;;2073673;28;20279;-65
2021/10/29 03:54:55;;;;;;;58.92;47.20;;;2.50;99.90;;;;;;2073773;28;20202;-65
2021/10/29 03:55:58;;;;;;;22.08;14.25;;;2.50;99.90;;;;;;2073573;28;20203;-66
2021/10/29 03:58:03;;;;;;;6.13;4.75;;;2.60;99.90;;;;;;2073905;28;20197;-65
2021/10/29 03:59:05;;;;;;;6.07;4.47;;;2.70;99.90;;;;;;2073748;28;20245;-65
2021/10/29 04:00:08;;;;;;;4.35;3.83;;;2.70;99.90;;;;;;2073686;28;20237;-65
2021/10/29 04:01:08;;;;;;;7.60;3.45;;;2.80;99.90;;;;;;2072582;28;20189;-65
2021/10/29 04:02:12;;;;;;;5.27;3.43;;;2.80;99.90;;;;;;2073045;28;20689;-66
2021/10/29 04:03:14;;;;;;;3.47;2.88;;;2.80;99.90;;;;;;2073561;28;20564;-65
2021/10/29 04:04:15;;;;;;;4.72;2.30;;;2.80;99.90;;;;;;2073595;28;20189;-65
2021/10/29 04:05:15;;;;;;;3.35;2.20;;;2.80;99.90;;;;;;2073614;28;20179;-65
2021/10/29 04:06:17;;;;;;;4.13;2.60;;;2.70;99.90;;;;;;2073458;28;20210;-65
2021/10/29 04:07:18;;;;;;;2.85;2.20;;;2.70;99.90;;;;;;2073700;28;20228;-65
2021/10/29 04:08:19;;;;;;;6.38;2.58;;;2.70;99.90;;;;;;2073676;28;20210;-65
2021/10/29 04:09:19;;;;;;;3.70;3.10;;;2.70;99.90;;;;;;2073723;28;20272;-65
2021/10/29 04:10:25;;;;;;;3.40;3.03;;;2.60;99.90;;;;;;2073542;28;20193;-65
2021/10/29 04:11:27;;;;;;;4.03;2.67;;;2.60;99.90;;;;;;2073306;28;20365;-65
2021/10/29 04:12:27;;;;;;;3.75;2.75;;;2.60;99.90;;;;;;2073550;28;20209;-65
2021/10/29 04:13:34;;;;;;;4.03;2.60;;;2.60;99.90;;;;;;2073610;28;20664;-65
2021/10/29 04:14:35;;;;;;;2.92;2.30;;;2.60;99.90;;;;;;2073427;28;20656;-65
2021/10/29 04:15:40;;;;;;;3.58;2.80;;;2.50;99.90;;;;;;2073538;28;20257;-65
2021/10/29 04:16:43;;;;;;;3.53;2.63;;;2.60;99.90;;;;;;2073255;28;20182;-65
2021/10/29 04:17:43;;;;;;;3.42;2.60;;;2.50;99.90;;;;;;2073424;28;20185;-65
2021/10/29 04:18:44;;;;;;;4.97;2.47;;;2.50;99.90;;;;;;2073245;28;20206;-65
2021/10/29 04:19:45;;;;;;;3.53;2.63;;;2.50;99.90;;;;;;2073431;28;20174;-65
2021/10/29 04:20:45;;;;;;;3.17;2.50;;;2.50;99.90;;;;;;2073492;28;20665;-65
2021/10/29 04:21:46;;;;;;;2.97;2.17;;;2.40;99.90;;;;;;2073360;28;20254;-65
2021/10/29 04:22:48;;;;;;;3.90;2.33;;;2.40;99.90;;;;;;2073361;28;20178;-65
2021/10/29 04:23:48;;;;;;;4.38;2.35;;;2.40;99.90;;;;;;2073349;28;20637;-65
2021/10/29 04:24:49;;;;;;;4.57;2.70;;;2.30;99.90;;;;;;2073638;28;20258;-65
2021/10/29 04:25:50;;;;;;;2.77;2.20;;;2.30;99.90;;;;;;2073330;28;20258;-65
2021/10/29 04:26:50;;;;;;;2.53;2.17;;;2.30;99.90;;;;;;2073619;28;20641;-65
2021/10/29 04:27:58;;;;;;;3.80;2.50;;;2.30;99.90;;;;;;2073432;28;20201;-65
2021/10/29 04:28:58;;;;;;;8.45;4.50;;;2.30;99.90;;;;;;2073741;28;20179;-65
2021/10/29 04:30:00;;;;;;;116.23;60.27;;;2.30;99.90;;;;;;2073377;28;20273;-65
2021/10/29 04:31:04;;;;;;;317.25;169.95;;;2.30;99.90;;;;;;2073420;28;20193;-64
2021/10/29 04:32:06;;;;;;;292.73;148.05;;;2.30;99.90;;;;;;2073444;28;20204;-66
2021/10/29 04:33:07;;;;;;;226.68;110.75;;;2.30;99.90;;;;;;2073375;28;20243;-64
2021/10/29 04:34:08;;;;;;;166.75;86.10;;;2.30;99.90;;;;;;2073211;28;20684;-66
2021/10/29 04:35:10;;;;;;;160.48;76.25;;;2.40;99.90;;;;;;2073486;28;20209;-65
2021/10/29 04:36:11;;;;;;;84.93;45.45;;;2.40;99.90;;;;;;2073584;28;20221;-65
2021/10/29 04:37:13;;;;;;;40.00;20.83;;;2.30;99.90;;;;;;2072777;28;20197;-66
2021/10/29 04:38:14;;;;;;;37.30;20.90;;;2.40;99.90;;;;;;2072704;28;20173;-65
2021/10/29 04:39:15;;;;;;;63.40;32.75;;;2.40;99.90;;;;;;2073380;28;20186;-65
2021/10/29 04:40:17;;;;;;;62.28;33.58;;;2.30;99.90;;;;;;2073440;28;20208;-65
2021/10/29 04:41:18;;;;;;;65.72;34.33;;;2.40;99.90;;;;;;2072569;28;20850;-65
2021/10/29 04:42:20;;;;;;;76.67;39.87;;;2.30;99.90;;;;;;2073070;28;20178;-65
2021/10/29 04:43:21;;;;;;;65.93;35.53;;;2.30;99.90;;;;;;2073404;28;20655;-65
2021/10/29 04:44:23;;;;;;;43.27;22.80;;;2.30;99.90;;;;;;2073209;28;20257;-65
2021/10/29 04:45:24;;;;;;;31.33;17.25;;;2.30;99.90;;;;;;2073542;28;20432;-65
2021/10/29 04:46:25;;;;;;;32.43;18.10;;;2.30;99.90;;;;;;2073120;28;20182;-65
2021/10/29 04:47:26;;;;;;;28.97;16.00;;;2.30;99.90;;;;;;2073339;28;20174;-65
2021/10/29 04:48:26;;;;;;;31.58;16.38;;;2.30;99.90;;;;;;2073358;28;20190;-64
2021/10/29 04:49:27;;;;;;;27.93;15.60;;;2.30;99.90;;;;;;2073328;28;20177;-65
2021/10/29 04:50:28;;;;;;;21.53;12.17;;;2.30;99.90;;;;;;2073173;28;20189;-65
2021/10/29 04:51:30;;;;;;;21.90;12.13;;;2.30;99.90;;;;;;2073059;28;20563;-65
2021/10/29 04:52:30;;;;;;;24.00;13.70;;;2.30;99.90;;;;;;2073221;28;20217;-64
2021/10/29 04:53:31;;;;;;;17.40;9.97;;;2.30;99.90;;;;;;2073262;28;20518;-64
2021/10/29 04:54:32;;;;;;;9.57;5.57;;;2.30;99.90;;;;;;2073138;28;20174;-64
2021/10/29 04:55:33;;;;;;;16.90;8.53;;;2.30;99.90;;;;;;2073139;28;20201;-65
2021/10/29 04:56:33;;;;;;;15.10;7.63;;;2.30;99.90;;;;;;2073182;28;20316;-65
2021/10/29 04:57:34;;;;;;;12.33;7.13;;;2.30;99.90;;;;;;2073500;28;20602;-66
2021/10/29 04:58:35;;;;;;;12.57;6.80;;;2.30;99.90;;;;;;2080647;28;20232;-65
2021/10/29 04:59:36;;;;;;;7.90;5.03;;;2.30;99.90;;;;;;2081039;28;20664;-64
2021/10/29 05:00:36;;;;;;;10.30;6.50;;;2.30;99.90;;;;;;2081182;28;20246;-64
2021/10/29 05:01:37;;;;;;;12.33;6.97;;;2.30;99.90;;;;;;2081209;28;20177;-65
2021/10/29 05:02:38;;;;;;;11.83;7.50;;;2.20;99.90;;;;;;2081360;28;20243;-64
2021/10/29 05:03:39;;;;;;;13.63;8.27;;;2.30;99.90;;;;;;2081373;28;20192;-65
2021/10/29 05:04:40;;;;;;;16.63;9.63;;;2.20;99.90;;;;;;2081275;28;20177;-65
2021/10/29 05:05:41;;;;;;;17.67;10.35;;;2.20;99.90;;;;;;2081349;28;20177;-64
2021/10/29 05:06:42;;;;;;;18.93;10.90;;;2.20;99.90;;;;;;2081176;28;20201;-65
2021/10/29 05:07:43;;;;;;;14.65;9.48;;;2.20;99.90;;;;;;2081289;28;20683;-65
2021/10/29 05:08:44;;;;;;;16.33;9.57;;;2.20;99.90;;;;;;2081158;28;20184;-65
2021/10/29 05:09:44;;;;;;;14.60;8.13;;;2.20;99.90;;;;;;2081267;28;20670;-65
2021/10/29 05:10:45;;;;;;;14.70;8.90;;;2.20;99.90;;;;;;2081322;28;20408;-65
2021/10/29 05:11:46;;;;;;;16.00;9.23;;;2.20;99.90;;;;;;2080978;28;20201;-65
2021/10/29 05:12:47;;;;;;;15.03;8.93;;;2.20;99.90;;;;;;2081281;28;20660;-65
2021/10/29 05:13:47;;;;;;;11.40;7.70;;;2.20;99.90;;;;;;2081330;28;20235;-65
2021/10/29 05:14:48;;;;;;;10.67;6.37;;;2.20;99.90;;;;;;2081297;28;20173;-65
2021/10/29 05:15:49;;;;;;;12.23;6.47;;;2.20;99.90;;;;;;2081196;28;20648;-65
2021/10/29 05:16:50;;;;;;;8.87;5.67;;;2.20;99.90;;;;;;2081164;28;20299;-65
2021/10/29 05:17:51;;;;;;;9.38;5.90;;;2.20;99.90;;;;;;2081323;28;20227;-64
2021/10/29 05:18:52;;;;;;;11.20;7.15;;;2.20;99.90;;;;;;2081115;28;20705;-65
2021/10/29 05:19:53;;;;;;;14.33;7.43;;;2.20;99.90;;;;;;2081280;28;20181;-65
2021/10/29 05:20:53;;;;;;;12.73;7.43;;;2.20;99.90;;;;;;2081287;28;20272;-65
2021/10/29 05:21:54;;;;;;;10.90;6.37;;;2.20;99.90;;;;;;2080903;28;20177;-65
2021/10/29 05:22:55;;;;;;;7.60;5.40;;;2.20;99.90;;;;;;2081309;28;20189;-65
2021/10/29 05:23:55;;;;;;;10.53;6.63;;;2.20;99.90;;;;;;2081139;28;20323;-65
2021/10/29 05:24:56;;;;;;;11.70;6.37;;;2.20;99.90;;;;;;2081302;28;20193;-64
2021/10/29 05:25:57;;;;;;;9.27;6.27;;;2.20;99.90;;;;;;2081384;28;20640;-64
2021/10/29 05:26:57;;;;;;;12.17;7.37;;;2.20;99.90;;;;;;2081102;28;20196;-64
2021/10/29 05:27:58;;;;;;;11.20;6.43;;;2.20;99.90;;;;;;2081140;28;20184;-65
2021/10/29 05:28:59;;;;;;;9.43;6.57;;;2.20;99.90;;;;;;2081268;28;20185;-65